createdAt,value
2023-05-03T00:00:13.568Z,26.20
2023-05-03T00:03:04.592Z,32.40
2023-05-03T00:05:33.155Z,24.53
2023-05-03T00:08:02.250Z,27.88
2023-05-03T00:10:30.740Z,26.60
2023-05-03T00:13:00.400Z,30.17
2023-05-03T00:15:29.026Z,31.98
2023-05-03T00:17:57.204Z,30.20
2023-05-03T00:20:26.394Z,38.72
2023-05-03T00:22:54.669Z,40.63
2023-05-03T00:25:23.113Z,33.38
2023-05-03T00:27:51.213Z,33.05
2023-05-03T00:30:21.383Z,38.95
2023-05-03T00:32:51.550Z,47.55
2023-05-03T00:35:20.270Z,45.80
2023-05-03T00:37:48.371Z,43.92
2023-05-03T00:40:18.647Z,41.60
2023-05-03T00:42:47.210Z,48.92
2023-05-03T00:45:15.911Z,54.40
2023-05-03T00:47:45.567Z,63.72
2023-05-03T00:50:14.020Z,62.35
2023-05-03T00:52:42.859Z,63.15
2023-05-03T00:55:11.663Z,71.32
2023-05-03T00:57:39.860Z,68.80
2023-05-03T01:00:10.700Z,63.35
2023-05-03T01:02:39.538Z,70.07
2023-05-03T01:05:10.809Z,67.88
2023-05-03T01:07:46.276Z,61.53
2023-05-03T01:10:24.451Z,65.75
2023-05-03T01:12:58.044Z,70.30
2023-05-03T01:15:35.838Z,61.65
2023-05-03T01:18:08.942Z,70.35
2023-05-03T01:20:39.041Z,70.53
2023-05-03T01:23:12.975Z,76.88
2023-05-03T01:25:42.770Z,73.32
2023-05-03T01:28:10.926Z,67.07
2023-05-03T01:30:39.726Z,68.45
2023-05-03T01:33:12.479Z,67.30
2023-05-03T01:35:42.930Z,66.68
2023-05-03T01:38:13.593Z,64.70
2023-05-03T01:40:46.328Z,67.32
2023-05-03T01:43:16.340Z,70.18
2023-05-03T01:45:44.874Z,68.22
2023-05-03T01:48:17.265Z,66.78
2023-05-03T01:50:45.897Z,67.00
2023-05-03T01:53:14.280Z,62.50
2023-05-03T01:55:44.031Z,59.30
2023-05-03T01:58:12.567Z,58.80
2023-05-03T02:00:41.052Z,61.28
2023-05-03T02:03:09.217Z,53.63
2023-05-03T02:05:37.780Z,62.30
2023-05-03T02:08:06.057Z,61.63
2023-05-03T02:10:34.917Z,61.85
2023-05-03T02:13:04.562Z,64.50
2023-05-03T02:15:33.364Z,57.90
2023-05-03T02:18:02.601Z,61.35
2023-05-03T02:20:36.593Z,56.72
2023-05-03T02:23:05.014Z,52.45
2023-05-03T02:25:33.512Z,52.10
2023-05-03T02:28:01.794Z,57.10
2023-05-03T02:30:31.885Z,48.33
2023-05-03T02:33:00.207Z,48.33
2023-05-03T02:35:28.966Z,49.85
2023-05-03T02:37:57.443Z,50.88
2023-05-03T02:40:25.910Z,49.97
2023-05-03T02:42:54.047Z,51.42
2023-05-03T02:45:22.594Z,47.17
2023-05-03T02:47:52.109Z,57.55
2023-05-03T02:50:20.502Z,59.55
2023-05-03T02:52:48.671Z,54.13
2023-05-03T02:55:17.707Z,54.50
2023-05-03T02:57:45.819Z,57.47
2023-05-03T03:00:15.534Z,60.08
2023-05-03T03:02:43.751Z,64.35
2023-05-03T03:05:13.673Z,68.78
2023-05-03T03:07:41.893Z,69.55
2023-05-03T03:10:11.227Z,70.82
2023-05-03T03:12:39.556Z,74.15
2023-05-03T03:15:09.466Z,73.30
2023-05-03T03:17:39.361Z,77.70
2023-05-03T03:20:11.591Z,84.57
2023-05-03T03:22:41.459Z,81.75
2023-05-03T03:25:10.733Z,76.70
2023-05-03T03:27:39.850Z,73.57
2023-05-03T03:30:10.505Z,68.50
2023-05-03T03:32:38.705Z,75.97
2023-05-03T03:35:07.509Z,77.95
2023-05-03T03:37:35.706Z,88.15
2023-05-03T03:40:08.282Z,122.43
2023-05-03T03:42:36.487Z,81.65
2023-05-03T03:45:05.674Z,89.88
2023-05-03T03:47:34.199Z,95.57
2023-05-03T03:50:03.138Z,97.45
2023-05-03T03:52:31.583Z,96.30
2023-05-03T03:55:00.037Z,96.40
2023-05-03T03:57:30.370Z,93.00
2023-05-03T03:59:59.178Z,85.78
2023-05-03T04:02:29.228Z,103.57
2023-05-03T04:04:57.693Z,89.88
2023-05-03T04:07:25.886Z,84.18
2023-05-03T04:09:54.341Z,92.13
2023-05-03T04:12:22.525Z,81.70
2023-05-03T04:14:52.497Z,80.43
2023-05-03T04:17:20.656Z,74.43
2023-05-03T04:19:49.005Z,82.45
2023-05-03T04:22:17.146Z,67.78
2023-05-03T04:24:45.961Z,69.55
2023-05-03T04:27:14.763Z,69.90
2023-05-03T04:29:43.213Z,67.00
2023-05-03T04:32:14.347Z,67.93
2023-05-03T04:34:43.275Z,62.55
2023-05-03T04:37:11.377Z,60.00
2023-05-03T04:39:39.904Z,64.25
2023-05-03T04:42:08.836Z,63.13
2023-05-03T04:44:37.186Z,68.28
2023-05-03T04:47:05.284Z,70.90
2023-05-03T04:49:35.702Z,68.50
2023-05-03T04:52:03.924Z,64.38
2023-05-03T04:54:32.712Z,65.68
2023-05-03T04:57:00.888Z,66.03
2023-05-03T04:59:29.263Z,61.90
2023-05-03T05:01:57.553Z,66.57
2023-05-03T05:04:26.198Z,63.72
2023-05-03T05:06:56.191Z,58.65
2023-05-03T05:09:26.120Z,61.25
2023-05-03T05:11:56.789Z,68.80
2023-05-03T05:14:27.653Z,66.55
2023-05-03T05:16:55.773Z,67.32
2023-05-03T05:19:24.226Z,61.97
2023-05-03T05:21:52.646Z,64.18
2023-05-03T05:24:22.629Z,64.32
2023-05-03T05:26:50.790Z,63.58
2023-05-03T05:29:19.305Z,63.15
2023-05-03T05:31:47.552Z,63.15
2023-05-03T05:34:16.431Z,68.05
2023-05-03T05:36:44.569Z,67.95
2023-05-03T05:39:13.124Z,61.05
2023-05-03T05:41:42.616Z,61.85
2023-05-03T05:44:11.842Z,60.78
2023-05-03T05:46:39.978Z,69.10
2023-05-03T05:49:08.386Z,62.38
2023-05-03T05:51:36.491Z,66.18
2023-05-03T05:54:05.077Z,64.03
2023-05-03T05:56:33.412Z,68.70
2023-05-03T05:59:05.805Z,69.03
2023-05-03T06:04:02.959Z,72.55
2023-05-03T06:06:31.443Z,69.07
2023-05-03T06:09:04.768Z,71.60
2023-05-03T06:11:38.838Z,78.25
2023-05-03T06:14:09.583Z,81.43
2023-05-03T06:16:38.052Z,79.20
2023-05-03T06:19:06.532Z,83.70
2023-05-03T06:21:35.085Z,82.30
2023-05-03T06:24:03.490Z,84.40
2023-05-03T06:26:32.035Z,86.93
2023-05-03T06:29:01.429Z,94.68
2023-05-03T06:31:31.035Z,90.65
2023-05-03T06:34:00.181Z,89.13
2023-05-03T06:36:30.280Z,101.00
2023-05-03T06:38:58.662Z,102.35
2023-05-03T06:41:26.803Z,99.72
2023-05-03T06:43:55.175Z,100.45
2023-05-03T06:46:23.432Z,92.72
2023-05-03T06:48:56.222Z,89.25
2023-05-03T06:51:28.036Z,107.85
2023-05-03T06:53:56.772Z,93.55
2023-05-03T06:56:25.211Z,101.30
2023-05-03T06:58:54.488Z,92.95
2023-05-03T07:01:23.359Z,98.78
2023-05-03T07:03:53.268Z,105.85
2023-05-03T07:06:23.142Z,109.82
2023-05-03T07:08:52.352Z,99.78
2023-05-03T07:11:23.762Z,99.60
2023-05-03T07:13:52.394Z,98.47
2023-05-03T07:16:20.965Z,95.15
2023-05-03T07:18:49.826Z,95.25
2023-05-03T07:21:19.328Z,87.68
2023-05-03T07:23:48.307Z,82.53
2023-05-03T07:26:16.503Z,86.53
2023-05-03T07:28:45.111Z,82.75
2023-05-03T07:31:13.451Z,88.05
2023-05-03T07:33:42.044Z,79.22
2023-05-03T07:36:10.827Z,72.43
2023-05-03T07:38:40.854Z,61.00
2023-05-03T07:41:09.220Z,42.15
2023-05-03T07:43:37.738Z,45.42
2023-05-03T07:46:05.981Z,40.90
2023-05-03T07:48:34.372Z,41.38
2023-05-03T07:51:04.770Z,34.40
2023-05-03T07:53:35.198Z,34.17
2023-05-03T07:56:05.002Z,30.60
2023-05-03T07:58:40.204Z,37.63
2023-05-03T08:01:09.427Z,46.15
2023-05-03T08:03:38.196Z,51.63
2023-05-03T08:06:06.970Z,36.40
2023-05-03T08:08:36.708Z,37.88
2023-05-03T08:11:06.292Z,39.60
2023-05-03T08:13:34.699Z,34.25
2023-05-03T08:16:03.262Z,33.80
2023-05-03T08:18:31.961Z,35.67
2023-05-03T08:21:00.582Z,41.58
2023-05-03T08:23:29.261Z,51.92
2023-05-03T08:25:57.841Z,58.78
2023-05-03T08:28:28.036Z,59.95
2023-05-03T08:30:56.980Z,74.93
2023-05-03T08:33:26.145Z,49.83
2023-05-03T08:35:54.257Z,57.13
2023-05-03T08:38:22.721Z,49.90
2023-05-03T08:40:52.592Z,52.38
2023-05-03T08:43:21.907Z,62.17
2023-05-03T08:45:51.528Z,55.33
2023-05-03T08:48:20.713Z,35.03
2023-05-03T08:50:51.662Z,37.90
2023-05-03T08:53:20.405Z,33.73
2023-05-03T08:55:48.585Z,50.95
2023-05-03T08:58:17.275Z,47.25
2023-05-03T09:00:45.729Z,48.15
2023-05-03T09:03:15.562Z,32.90
2023-05-03T09:05:44.671Z,44.53
2023-05-03T09:08:14.593Z,46.28
2023-05-03T09:10:43.796Z,31.77
2023-05-03T09:13:12.946Z,32.38
2023-05-03T09:15:41.322Z,17.10
2023-05-03T09:18:17.401Z,20.33
2023-05-03T09:20:51.724Z,21.90
2023-05-03T09:23:31.317Z,23.27
2023-05-03T09:26:00.388Z,22.48
2023-05-03T09:28:29.052Z,30.90
2023-05-03T09:31:06.841Z,33.42
2023-05-03T09:33:36.756Z,39.30
2023-05-03T09:36:06.463Z,23.40
2023-05-03T09:38:38.045Z,31.20
2023-05-03T09:41:06.944Z,25.00
2023-05-03T09:43:35.781Z,19.10
2023-05-03T09:46:11.520Z,20.52
2023-05-03T09:48:42.172Z,20.08
2023-05-03T09:51:11.379Z,22.67
2023-05-03T09:53:41.436Z,22.45
2023-05-03T09:56:12.507Z,20.65
2023-05-03T09:58:41.345Z,25.50
2023-05-03T10:01:10.449Z,23.02
2023-05-03T10:03:43.890Z,26.40
2023-05-03T10:06:24.223Z,22.75
2023-05-03T10:08:55.592Z,23.52
2023-05-03T10:11:25.874Z,21.67
2023-05-03T10:13:54.515Z,23.23
2023-05-03T10:16:26.513Z,29.55
2023-05-03T10:19:01.480Z,24.98
2023-05-03T10:21:36.854Z,25.38
2023-05-03T10:24:12.980Z,23.85
2023-05-03T10:26:46.084Z,19.88
2023-05-03T10:29:48.926Z,25.42
2023-05-03T10:32:39.506Z,21.65
2023-05-03T10:35:11.439Z,23.63
2023-05-03T10:37:41.654Z,21.02
2023-05-03T10:40:13.689Z,25.05
2023-05-03T10:42:46.536Z,27.08
2023-05-03T10:45:26.772Z,26.83
2023-05-03T10:48:20.422Z,21.45
2023-05-03T10:50:52.509Z,24.30
2023-05-03T10:53:40.158Z,18.20
2023-05-03T10:56:10.147Z,25.35
2023-05-03T10:58:39.727Z,21.13
2023-05-03T11:01:09.036Z,20.52
2023-05-03T11:03:47.838Z,20.80
2023-05-03T11:06:31.758Z,20.45
2023-05-03T11:09:00.156Z,20.70
2023-05-03T11:11:28.760Z,19.10
2023-05-03T11:13:57.054Z,22.85
2023-05-03T11:16:25.963Z,20.23
2023-05-03T11:18:54.435Z,20.02
2023-05-03T11:21:23.144Z,23.95
2023-05-03T11:23:52.602Z,22.13
2023-05-03T11:26:26.334Z,25.90
2023-05-03T11:28:55.406Z,22.00
2023-05-03T11:31:23.807Z,21.35
2023-05-03T11:33:52.413Z,27.98
2023-05-03T11:36:21.684Z,23.70
2023-05-03T11:38:49.805Z,20.35
2023-05-03T11:41:19.867Z,18.13
2023-05-03T11:43:55.074Z,22.38
2023-05-03T11:46:27.567Z,22.33
2023-05-03T11:48:56.248Z,20.80
2023-05-03T11:51:25.561Z,22.95
2023-05-03T11:53:53.712Z,31.75
2023-05-03T11:56:23.440Z,18.02
2023-05-03T11:58:53.526Z,22.80
2023-05-03T12:01:23.860Z,18.65
2023-05-03T12:03:55.365Z,19.88
2023-05-03T12:08:53.075Z,17.80
2023-05-03T12:11:26.169Z,15.27
2023-05-03T12:13:59.971Z,18.85
2023-05-03T12:16:28.966Z,15.48
2023-05-03T12:19:02.951Z,22.02
2023-05-03T12:21:54.214Z,22.48
2023-05-03T12:24:28.852Z,26.90
2023-05-03T12:27:02.081Z,45.00
2023-05-03T12:29:34.644Z,30.13
2023-05-03T12:32:04.904Z,22.45
2023-05-03T12:34:36.196Z,19.75
2023-05-03T12:37:06.617Z,18.60
2023-05-03T12:39:39.211Z,17.77
2023-05-03T12:42:10.144Z,36.45
2023-05-03T12:44:42.646Z,56.85
2023-05-03T12:47:15.811Z,51.10
2023-05-03T12:49:52.234Z,43.42
2023-05-03T12:52:37.490Z,39.28
2023-05-03T12:55:11.346Z,27.92
2023-05-03T12:57:45.751Z,37.20
2023-05-03T13:05:31.067Z,25.73
2023-05-03T13:08:07.968Z,19.55
2023-05-03T13:10:38.574Z,23.48
2023-05-03T13:13:09.230Z,28.60
2023-05-03T13:15:37.580Z,23.42
2023-05-03T13:18:07.899Z,23.05
2023-05-03T13:20:37.209Z,18.92
2023-05-03T13:23:05.703Z,16.45
2023-05-03T13:25:33.870Z,20.30
2023-05-03T13:28:02.503Z,20.17
2023-05-03T13:30:32.209Z,17.42
2023-05-03T13:33:00.636Z,19.23
2023-05-03T13:35:28.989Z,24.67
2023-05-03T13:37:57.991Z,20.60
2023-05-03T13:40:26.638Z,29.95
2023-05-03T13:42:55.024Z,42.13
2023-05-03T13:45:23.496Z,40.33
2023-05-03T13:48:07.216Z,43.53
2023-05-03T13:50:41.704Z,30.70
2023-05-03T13:53:10.365Z,22.13
2023-05-03T13:55:38.756Z,23.10
2023-05-03T13:58:07.115Z,19.63
2023-05-03T14:00:35.391Z,21.15
2023-05-03T14:03:06.534Z,23.48
2023-05-03T14:05:34.834Z,27.83
2023-05-03T14:08:03.257Z,34.03
2023-05-03T14:10:31.465Z,28.58
2023-05-03T14:13:00.323Z,26.77
2023-05-03T14:15:28.583Z,32.63
2023-05-03T14:17:59.837Z,29.02
2023-05-03T14:20:31.731Z,28.65
2023-05-03T14:23:00.146Z,28.45
2023-05-03T14:25:28.359Z,31.45
2023-05-03T14:27:57.280Z,39.05
2023-05-03T14:30:25.959Z,40.97
2023-05-03T14:32:54.399Z,33.88
2023-05-03T14:35:23.243Z,38.05
2023-05-03T14:37:53.090Z,38.15
2023-05-03T14:40:21.801Z,42.42
2023-05-03T14:42:50.224Z,51.83
2023-05-03T14:45:18.577Z,42.08
2023-05-03T14:47:47.118Z,45.00
2023-05-03T14:50:16.159Z,42.78
2023-05-03T14:52:44.614Z,46.58
2023-05-03T14:55:14.266Z,39.28
2023-05-03T14:57:42.694Z,48.13
2023-05-03T15:00:14.389Z,116.07
2023-05-03T15:02:43.934Z,69.68
2023-05-03T15:05:12.756Z,45.85
2023-05-03T15:07:41.466Z,32.67
2023-05-03T15:10:10.533Z,31.08
2023-05-03T15:12:40.585Z,37.38
2023-05-03T15:15:12.060Z,31.83
2023-05-03T15:17:40.622Z,32.47
2023-05-03T15:20:13.921Z,32.22
2023-05-03T15:22:42.475Z,49.17
2023-05-03T15:25:11.159Z,59.25
2023-05-03T15:27:41.059Z,71.72
2023-05-03T15:30:12.107Z,59.53
2023-05-03T15:32:40.841Z,47.35
2023-05-03T15:35:09.764Z,43.63
2023-05-03T15:37:38.744Z,68.80
2023-05-03T15:40:09.248Z,56.63
2023-05-03T15:42:37.819Z,68.63
2023-05-03T15:45:09.478Z,66.45
2023-05-03T15:47:38.570Z,57.90
2023-05-03T15:50:08.361Z,48.90
2023-05-03T15:52:37.360Z,39.17
2023-05-03T15:55:07.057Z,39.85
2023-05-03T15:57:35.638Z,37.42
2023-05-03T16:00:06.452Z,41.65
2023-05-03T16:02:37.346Z,58.43
2023-05-03T16:05:06.037Z,46.58
2023-05-03T16:07:34.501Z,50.45
2023-05-03T16:10:02.863Z,52.78
2023-05-03T16:12:31.673Z,58.25
2023-05-03T16:15:00.041Z,54.85
2023-05-03T16:17:28.713Z,46.35
2023-05-03T16:19:58.292Z,49.65
2023-05-03T16:22:26.976Z,45.53
2023-05-03T16:24:55.126Z,49.00
2023-05-03T16:27:23.521Z,45.58
2023-05-03T16:29:51.726Z,52.13
2023-05-03T16:32:20.688Z,50.00
2023-05-03T16:34:50.362Z,46.72
2023-05-03T16:37:20.608Z,42.47
2023-05-03T16:39:49.000Z,46.72
2023-05-03T16:42:17.539Z,47.33
2023-05-03T16:44:45.694Z,39.65
2023-05-03T16:47:14.354Z,43.33
2023-05-03T16:49:42.486Z,43.30
2023-05-03T16:52:11.775Z,42.60
2023-05-03T16:54:41.528Z,46.10
2023-05-03T16:57:10.452Z,41.90
2023-05-03T16:59:38.579Z,42.08
2023-05-03T17:02:07.338Z,45.85
2023-05-03T17:04:35.722Z,43.70
2023-05-03T17:07:04.360Z,45.47
2023-05-03T17:09:32.731Z,43.80
2023-05-03T17:12:03.605Z,45.83
2023-05-03T17:14:32.060Z,49.83
2023-05-03T17:17:00.611Z,49.88
2023-05-03T17:19:29.519Z,45.38
2023-05-03T17:21:57.956Z,51.40
2023-05-03T17:24:27.163Z,44.10
2023-05-03T17:26:56.696Z,47.55
2023-05-03T17:29:27.370Z,47.35
2023-05-03T17:31:56.337Z,46.60
2023-05-03T17:34:24.984Z,49.55
2023-05-03T17:36:56.090Z,45.88
2023-05-03T17:39:24.471Z,48.33
2023-05-03T17:41:53.451Z,49.40
2023-05-03T17:44:22.836Z,46.45
2023-05-03T17:46:52.838Z,65.88
2023-05-03T17:49:21.240Z,57.15
2023-05-03T17:51:49.745Z,60.33
2023-05-03T17:54:17.940Z,59.65
2023-05-03T17:56:46.609Z,60.95
2023-05-03T17:59:14.694Z,53.60
2023-05-03T18:01:43.174Z,56.28
2023-05-03T18:04:12.941Z,53.90
2023-05-03T18:06:41.550Z,61.15
2023-05-03T18:09:10.045Z,61.78
2023-05-03T18:11:39.969Z,57.85
2023-05-03T18:14:08.341Z,55.53
2023-05-03T18:16:37.000Z,55.92
2023-05-03T18:19:05.265Z,60.53
2023-05-03T18:21:36.057Z,58.85
2023-05-03T18:24:04.871Z,51.75
2023-05-03T18:26:33.458Z,55.30
2023-05-03T18:29:01.574Z,56.78
2023-05-03T18:31:30.073Z,53.00
2023-05-03T18:33:58.940Z,50.95
2023-05-03T18:36:27.385Z,62.67
2023-05-03T18:38:56.903Z,58.30
2023-05-03T18:41:25.253Z,56.88
2023-05-03T18:43:54.522Z,70.75
2023-05-03T18:46:22.925Z,66.30
2023-05-03T18:48:51.056Z,64.03
2023-05-03T18:51:19.709Z,67.80
2023-05-03T18:53:48.058Z,75.40
2023-05-03T18:56:18.066Z,66.43
2023-05-03T18:58:48.254Z,70.95
2023-05-03T19:01:16.759Z,70.28
2023-05-03T19:03:44.935Z,76.75
2023-05-03T19:06:14.220Z,78.70
2023-05-03T19:08:43.706Z,76.30
2023-05-03T19:11:12.779Z,77.95
2023-05-03T19:13:44.856Z,79.60
2023-05-03T19:16:13.582Z,84.15
2023-05-03T19:18:42.065Z,91.97
2023-05-03T19:21:11.950Z,74.45
2023-05-03T19:23:40.432Z,70.38
2023-05-03T19:26:08.827Z,71.05
2023-05-03T19:28:37.241Z,75.80
2023-05-03T19:31:07.321Z,74.90
2023-05-03T19:33:35.582Z,77.05
2023-05-03T19:36:06.714Z,66.93
2023-05-03T19:38:36.230Z,71.00
2023-05-03T19:41:09.589Z,69.57
2023-05-03T19:43:37.810Z,72.70
2023-05-03T19:46:07.994Z,66.47
2023-05-03T19:48:36.482Z,67.82
2023-05-03T19:51:06.077Z,66.07
2023-05-03T19:53:34.739Z,72.85
2023-05-03T19:56:03.928Z,72.20
2023-05-03T19:58:32.805Z,76.10
2023-05-03T20:01:01.607Z,75.13
2023-05-03T20:03:31.540Z,85.50
2023-05-03T20:06:00.210Z,79.80
2023-05-03T20:08:28.388Z,75.22
2023-05-03T20:10:56.832Z,82.03
2023-05-03T20:13:27.489Z,73.90
2023-05-03T20:15:56.282Z,72.18
2023-05-03T20:18:24.462Z,74.72
2023-05-03T20:20:54.217Z,70.70
2023-05-03T20:23:22.431Z,66.55
2023-05-03T20:25:50.781Z,66.70
2023-05-03T20:28:18.994Z,67.97
2023-05-03T20:30:47.439Z,64.35
2023-05-03T20:33:15.990Z,68.97
2023-05-03T20:35:44.438Z,68.00
2023-05-03T20:38:13.933Z,61.35
2023-05-03T20:40:42.441Z,64.40
2023-05-03T20:43:10.950Z,68.13
2023-05-03T20:45:39.376Z,67.85
2023-05-03T20:48:08.983Z,70.28
2023-05-03T20:50:37.711Z,65.60
2023-05-03T20:53:05.839Z,67.97
2023-05-03T20:55:35.764Z,68.60
2023-05-03T20:58:04.549Z,74.20
2023-05-03T21:00:33.009Z,70.65
2023-05-03T21:03:01.279Z,67.22
2023-05-03T21:05:30.102Z,73.75
2023-05-03T21:07:58.201Z,58.42
2023-05-03T21:10:26.992Z,67.78
2023-05-03T21:12:56.607Z,71.07
2023-05-03T21:15:25.035Z,69.50
2023-05-03T21:17:53.304Z,78.15
2023-05-03T21:20:22.572Z,74.55
2023-05-03T21:22:50.827Z,77.18
2023-05-03T21:25:19.750Z,76.75
2023-05-03T21:27:47.851Z,79.00
2023-05-03T21:30:20.520Z,79.97
2023-05-03T21:32:49.659Z,76.13
2023-05-03T21:35:18.376Z,78.22
2023-05-03T21:37:47.376Z,79.57
2023-05-03T21:40:16.532Z,76.45
2023-05-03T21:42:44.660Z,73.25
2023-05-03T21:45:13.470Z,79.20
2023-05-03T21:47:43.463Z,74.65
2023-05-03T21:50:12.815Z,71.68
2023-05-03T21:52:41.318Z,70.70
2023-05-03T21:55:10.536Z,63.15
2023-05-03T21:57:38.758Z,61.90
2023-05-03T22:00:13.993Z,69.07
2023-05-03T22:02:43.817Z,80.38
2023-05-03T22:05:13.076Z,124.97
2023-05-03T22:07:41.270Z,111.03
2023-05-03T22:10:10.441Z,90.80
2023-05-03T22:12:38.766Z,99.53
2023-05-03T22:15:09.204Z,96.13
2023-05-03T22:17:37.376Z,101.72
2023-05-03T22:20:10.410Z,103.35
2023-05-03T22:22:38.793Z,92.40
2023-05-03T22:25:07.937Z,101.20
2023-05-03T22:27:36.834Z,91.63
2023-05-03T22:30:06.219Z,101.55
2023-05-03T22:32:34.589Z,101.25
2023-05-03T22:35:03.553Z,99.45
2023-05-03T22:37:33.024Z,99.00
2023-05-03T22:40:01.724Z,102.93
2023-05-03T22:42:30.007Z,103.75
2023-05-03T22:44:58.584Z,97.65
2023-05-03T22:47:26.868Z,102.97
2023-05-03T22:49:55.819Z,111.43
2023-05-03T22:52:23.923Z,124.68
2023-05-03T22:54:57.841Z,103.25
2023-05-03T22:57:26.090Z,112.15
2023-05-03T22:59:54.474Z,110.43
2023-05-03T23:02:22.830Z,107.57
2023-05-03T23:04:51.582Z,101.97
2023-05-03T23:07:19.905Z,106.25
2023-05-03T23:09:48.714Z,94.43
2023-05-03T23:12:18.624Z,106.97
2023-05-03T23:14:47.021Z,102.72
2023-05-03T23:17:15.128Z,92.43
2023-05-03T23:19:43.649Z,90.88
2023-05-03T23:22:11.880Z,86.60
2023-05-03T23:24:40.506Z,86.30
2023-05-03T23:27:10.734Z,84.03
2023-05-03T23:29:41.452Z,84.13
2023-05-03T23:32:09.937Z,90.35
2023-05-03T23:34:38.992Z,84.43
2023-05-03T23:37:07.258Z,89.90
2023-05-03T23:39:35.600Z,90.00
2023-05-03T23:42:03.691Z,87.93
2023-05-03T23:44:42.936Z,85.88
2023-05-03T23:47:20.281Z,83.55
2023-05-03T23:49:48.869Z,85.20
2023-05-03T23:52:19.129Z,82.85
2023-05-03T23:54:47.768Z,82.22
2023-05-03T23:57:16.218Z,127.65
2023-05-03T23:59:44.652Z,269.38
